This is the latest recevied weather packets stored in our database for station/object LA3SP-1. If no packets are shown the sender has not sent any weather packets the latest 10 day(s).
| Time | Temp. | Humidity | Pressure | Rain* | Wind** | Luminosity | Snow |
|---|---|---|---|---|---|---|---|
| 1777539852 | 12.78° C | 44% | 1023.9 hPa | 0 mm | - | - | - |
| 1777539250 | 12.78° C | 44% | 1023.9 hPa | 0 mm | - | - | - |
| 1777538649 | 12.22° C | 44% | 1023.9 hPa | 0 mm | - | - | - |
| 1777537447 | 11.67° C | 47% | 1023.9 hPa | 0 mm | - | - | - |
| 1777536845 | 11.11° C | 49% | 1024.1 hPa | 0 mm | - | - | - |
| 1777536244 | 10° C | 49% | 1024.1 hPa | 0 mm | - | - | - |
| 1777535642 | 8.89° C | 52% | 1024.1 hPa | 0 mm | - | - | - |
| 1777535041 | 8.33° C | 54% | 1024 hPa | 0 mm | - | - | - |
| 1777533838 | 6.11° C | 60% | 1024.1 hPa | 0 mm | - | - | - |
| 1777533237 | 5.56° C | 60% | 1024.1 hPa | 0 mm | - | - | - |
| 1777532635 | 5° C | 60% | 1024.2 hPa | 0 mm | - | - | - |
| 1777532034 | 3.89° C | 61% | 1024.1 hPa | 0 mm | - | - | - |
| 1777531432 | 3.89° C | 60% | 1024.3 hPa | 0 mm | - | - | - |
| 1777530831 | 3.89° C | 59% | 1024.2 hPa | 0 mm | - | - | - |
| 1777529629 | 3.33° C | 58% | 1024.2 hPa | 0 mm | - | - | - |
| 1777529027 | 3.33° C | 57% | 1024.2 hPa | 0 mm | - | - | - |
| 1777528426 | 3.33° C | 55% | 1024.1 hPa | 0 mm | - | - | - |
| 1777527824 | 3.33° C | 55% | 1024.1 hPa | 0 mm | - | - | - |
| 1777527223 | 3.33° C | 54% | 1024.1 hPa | 0 mm | - | - | - |
| 1777526621 | 3.33° C | 54% | 1024 hPa | 0 mm | - | - | - |
| 1777525419 | 3.33° C | 52% | 1024 hPa | 0 mm | - | - | - |
| 1777524818 | 3.33° C | 50% | 1023.9 hPa | 0 mm | - | - | - |
| 1777524216 | 3.89° C | 49% | 1023.9 hPa | 0 mm | - | - | - |
| 1777523615 | 3.89° C | 48% | 1024 hPa | 0 mm | - | - | - |
| 1777523013 | 4.44° C | 48% | 1023.9 hPa | 0 mm | - | - | - |
* Rain latest 24 hours (hover to see other rain measurements)
** Current wind speed in m/s (hover to see current wind gust speed)